Airfield :
LOGIN :

Register | Disclaimer

   EN    FR    IT 

 










Legend :    VFR   Marginal VFR   IFR   Intensive IFR   Very Intensive IFR
Visi :
Ceiling :
>= 8 km
>= 3000ft
5 to 8 km
1000 to 3000 ft
1500m to 5 km
500 to 1000 ft
800 to 1500m
200 to 500 ft
< 800m
< 200 ft
Symbols :   Thunderstorms  Fog  Heavy snow  Heavy precipitations  Wind > 20 kt
SIGMETs :     Misc.  Thunderstorms  Icing  Turbulence  Mountain Waves  Volcanic Ashes






- Airport Elevation : 408 ft
- IATA code : FKB


EDSB - Karlsruhe Baden Baden

CURRENT METAR :
  • 150720Z 20004KT 170V270 CAVOK 13/12 Q1006

EXPIRED METARs :
  • 150650Z 14003KT 090V160 CAVOK 13/12 Q1006
  • 150620Z VRB02KT CAVOK 12/11 Q1006
  • 150550Z 30003KT 260V320 CAVOK 12/11 Q1006
  • 150520Z 33003KT 300V360 CAVOK 11/10 Q1006
  • 150450Z VRB01KT CAVOK 11/11 Q1007
  • 150420Z 15003KT 110V190 CAVOK 11/10 Q1007

TAF TAF EDSB
Valid from the 15 at 06:00 until the 16 at 06:00 UTC


150500Z 1506/1606 VRB03KT CAVOK
TEMPO 1506/1510 2500 BCFG
PROB30
TEMPO 1506/1508 0800 FG OVC001
BECMG 1510/1512 23008KT
TEMPO 1512/1518 4000 SHRA BKN013 BKN020CB
TEMPO 1518/1522 RA



MET'MAP, your aeronautical weather chart ! - Copyright ORBIFLY December 2007 - Disclaimer

ORBIFLY MET'MAP TEAM :

Programming & Development : Alexandra Zaïnal
Concept & Development : Baudouin d'Aumeries
Co-Development & Prog : Marc-Olivier Méhu
Technical & hardware support : Manuel Goepfert

Contact : metmap@orbifly.com




SOURCES & CREDITS :

   NOAA